Terminal Aerodrome Forecast
Issued by NWS Charleston, WV

Current Version | Previous Version | Graphics & Text | Print | Product List | Glossary On
Versions: 1 2 3 4 5 6 7 8 9 10 11 12 13 14 15 16 17 18 19 20 21 22 23 24 25 26 27
000
FTUS41 KRLX 220500
TAFCRW
TAF
KCRW 220536Z 2206/2306 00000KT 4SM BR SCT001 OVC030
     FM220800 00000KT 4SM SHRA BR BKN025 BKN080
      TEMPO 2208/2210 29015G25KT 1SM +TSRA BR BKN010 BKN030CB
     FM221200 00000KT 4SM BR SCT001 BKN025
      TEMPO 2212/2214 -SHRA
     FM221400 00000KT 5SM BR BKN025
     FM221600 24005KT 5SM HZ VCTS BKN030CB
     FM230100 VRB03KT 5SM BR BKN028=

USA.gov is the U.S. government's official web portal to all federal, state and local government web resources and services.